createdAt,value
2018-12-31T00:02:24.062Z,8.97
2018-12-31T00:04:51.349Z,7.07
2018-12-31T00:07:18.630Z,7.43
2018-12-31T00:09:45.893Z,7.63
2018-12-31T00:12:13.176Z,8.03
2018-12-31T00:14:40.426Z,7.90
2018-12-31T00:17:07.698Z,7.37
2018-12-31T00:19:34.935Z,6.87
2018-12-31T00:22:02.218Z,7.83
2018-12-31T00:24:29.491Z,7.80
2018-12-31T00:26:56.750Z,7.60
2018-12-31T00:29:24.020Z,7.13
2018-12-31T00:31:51.283Z,6.03
2018-12-31T00:34:18.614Z,7.07
2018-12-31T00:36:45.887Z,7.10
2018-12-31T00:39:13.174Z,7.13
2018-12-31T00:41:40.438Z,7.57
2018-12-31T00:44:07.717Z,7.27
2018-12-31T00:46:34.981Z,6.83
2018-12-31T00:49:02.269Z,6.97
2018-12-31T00:51:29.510Z,7.30
2018-12-31T00:53:56.787Z,7.13
2018-12-31T00:56:24.024Z,9.00
2018-12-31T00:58:51.274Z,7.93
2018-12-31T01:01:18.543Z,7.77
2018-12-31T01:03:45.804Z,7.07
2018-12-31T01:06:13.096Z,7.30
2018-12-31T01:08:40.371Z,7.37
2018-12-31T01:11:07.646Z,8.57
2018-12-31T01:13:34.902Z,7.37
2018-12-31T01:16:02.166Z,7.10
2018-12-31T01:18:29.434Z,6.73
2018-12-31T01:20:56.704Z,6.93
2018-12-31T01:23:23.988Z,6.50
2018-12-31T01:25:51.238Z,6.33
2018-12-31T01:28:18.535Z,6.53
2018-12-31T01:30:45.796Z,6.97
2018-12-31T01:33:13.073Z,7.40
2018-12-31T01:35:40.349Z,6.77
2018-12-31T01:38:07.606Z,7.57
2018-12-31T01:40:34.858Z,7.13
2018-12-31T01:43:02.144Z,6.23
2018-12-31T01:45:29.400Z,7.23
2018-12-31T01:47:56.671Z,7.40
2018-12-31T01:50:23.925Z,6.97
2018-12-31T01:52:51.228Z,7.40
2018-12-31T01:55:18.507Z,7.53
2018-12-31T01:57:45.782Z,8.70
2018-12-31T02:00:13.133Z,6.43
2018-12-31T02:02:40.389Z,7.30
2018-12-31T02:05:07.656Z,7.57
2018-12-31T02:07:36.466Z,7.00
2018-12-31T02:10:05.261Z,6.87
2018-12-31T02:12:32.511Z,7.10
2018-12-31T02:14:59.789Z,7.27
2018-12-31T02:17:27.031Z,7.43
2018-12-31T02:19:54.279Z,7.60
2018-12-31T02:22:21.569Z,6.43
2018-12-31T02:24:48.834Z,7.33
2018-12-31T02:27:16.089Z,6.57
2018-12-31T02:29:43.361Z,7.03
2018-12-31T02:32:10.651Z,7.40
2018-12-31T02:34:37.917Z,6.73
2018-12-31T02:37:05.183Z,7.80
2018-12-31T02:39:32.447Z,7.63
2018-12-31T02:41:59.726Z,6.00
2018-12-31T02:44:27.028Z,7.10
2018-12-31T02:46:54.323Z,7.07
2018-12-31T02:49:21.603Z,7.57
2018-12-31T02:51:48.866Z,7.57
2018-12-31T02:54:16.147Z,6.70
2018-12-31T02:56:46.136Z,7.13
2018-12-31T02:59:13.387Z,8.10
2018-12-31T03:01:40.632Z,6.80
2018-12-31T03:04:07.934Z,6.87
2018-12-31T03:06:35.185Z,8.60
2018-12-31T03:09:04.087Z,8.07
2018-12-31T03:11:31.348Z,7.00
2018-12-31T03:13:58.625Z,7.67
2018-12-31T03:16:25.903Z,9.10
2018-12-31T03:18:53.188Z,8.00
2018-12-31T03:21:20.450Z,7.70
2018-12-31T03:23:47.703Z,8.37
2018-12-31T03:26:14.999Z,7.70
2018-12-31T03:28:42.230Z,7.40
2018-12-31T03:31:09.507Z,10.17
2018-12-31T03:33:36.779Z,7.13
2018-12-31T03:36:04.068Z,8.70
2018-12-31T03:38:31.321Z,7.17
2018-12-31T03:40:58.659Z,8.53
2018-12-31T03:43:25.929Z,7.03
2018-12-31T03:45:53.193Z,8.57
2018-12-31T03:48:20.477Z,8.03
2018-12-31T03:50:47.734Z,8.73
2018-12-31T03:53:14.996Z,7.90
2018-12-31T03:55:42.240Z,7.80
2018-12-31T03:58:09.513Z,7.53
2018-12-31T04:00:36.778Z,8.23
2018-12-31T04:03:05.916Z,8.27
2018-12-31T04:05:33.177Z,6.73
2018-12-31T04:08:00.443Z,8.00
2018-12-31T04:10:27.695Z,9.13
2018-12-31T04:12:54.986Z,7.97
2018-12-31T04:15:22.234Z,8.17
2018-12-31T04:17:49.510Z,8.47
2018-12-31T04:20:16.778Z,6.97
2018-12-31T04:22:44.046Z,9.93
2018-12-31T04:25:11.330Z,8.70
2018-12-31T04:27:38.648Z,8.00
2018-12-31T04:30:05.997Z,8.60
2018-12-31T04:32:33.265Z,8.30
2018-12-31T04:35:00.531Z,9.77
2018-12-31T04:37:27.802Z,9.47
2018-12-31T04:39:55.073Z,7.80
2018-12-31T04:42:22.356Z,8.23
2018-12-31T04:44:49.606Z,8.63
2018-12-31T04:47:16.881Z,8.90
2018-12-31T04:49:44.145Z,8.57
2018-12-31T04:52:11.433Z,9.40
2018-12-31T04:54:38.739Z,7.73
2018-12-31T04:57:06.026Z,8.63
2018-12-31T04:59:33.278Z,8.20
2018-12-31T05:02:00.546Z,7.13
2018-12-31T05:04:27.838Z,8.23
2018-12-31T05:06:55.171Z,9.50
2018-12-31T05:09:22.492Z,7.47
2018-12-31T05:11:50.089Z,7.87
2018-12-31T05:14:18.773Z,8.93
2018-12-31T05:16:47.615Z,8.73
2018-12-31T05:19:14.870Z,7.50
2018-12-31T05:21:42.138Z,8.53
2018-12-31T05:24:09.431Z,8.27
2018-12-31T05:26:36.687Z,7.70
2018-12-31T05:29:03.956Z,7.87
2018-12-31T05:31:31.217Z,7.23
2018-12-31T05:33:58.464Z,7.50
2018-12-31T05:36:25.730Z,7.43
2018-12-31T05:38:53.009Z,8.07
2018-12-31T05:41:20.290Z,7.63
2018-12-31T05:43:47.570Z,7.43
2018-12-31T05:46:14.852Z,6.90
2018-12-31T05:48:42.114Z,6.83
2018-12-31T05:51:09.428Z,8.73
2018-12-31T05:53:38.301Z,7.47
2018-12-31T05:56:05.573Z,7.03
2018-12-31T05:58:32.838Z,8.03
2018-12-31T06:01:00.111Z,6.30
2018-12-31T06:03:27.378Z,7.60
2018-12-31T06:05:54.631Z,7.17
2018-12-31T06:08:21.922Z,8.23
2018-12-31T06:10:49.199Z,8.30
2018-12-31T06:13:16.455Z,7.27
2018-12-31T06:15:43.699Z,7.73
2018-12-31T06:18:10.972Z,6.97
2018-12-31T06:20:38.243Z,7.70
2018-12-31T06:23:05.494Z,6.90
2018-12-31T06:25:32.759Z,6.83
2018-12-31T06:28:00.047Z,7.80
2018-12-31T06:30:27.315Z,7.03
2018-12-31T06:32:54.578Z,6.87
2018-12-31T06:35:21.866Z,6.27
2018-12-31T06:37:49.128Z,9.30
2018-12-31T06:40:16.404Z,8.53
2018-12-31T06:42:43.687Z,7.57
2018-12-31T06:45:10.934Z,7.53
2018-12-31T06:47:38.212Z,7.23
2018-12-31T06:50:05.523Z,7.07
2018-12-31T06:52:32.775Z,8.03
2018-12-31T06:55:00.041Z,9.63
2018-12-31T06:57:27.380Z,7.77
2018-12-31T06:59:54.734Z,8.47
2018-12-31T07:02:21.966Z,7.50
2018-12-31T07:04:49.262Z,7.87
2018-12-31T07:07:16.503Z,7.53
2018-12-31T07:09:43.942Z,7.87
2018-12-31T07:12:11.225Z,7.77
2018-12-31T07:14:38.505Z,8.50
2018-12-31T07:17:05.801Z,8.10
2018-12-31T07:19:33.130Z,8.33
2018-12-31T07:22:00.413Z,9.57
2018-12-31T07:24:27.654Z,9.70
2018-12-31T07:26:54.906Z,9.03
2018-12-31T07:29:22.178Z,9.77
2018-12-31T07:31:49.462Z,9.47
2018-12-31T07:34:16.714Z,10.07
2018-12-31T07:36:43.963Z,10.70
2018-12-31T07:39:11.238Z,10.60
2018-12-31T07:41:38.483Z,9.20
2018-12-31T07:44:05.748Z,9.63
2018-12-31T07:46:33.009Z,10.27
2018-12-31T07:49:00.298Z,9.73
2018-12-31T07:51:27.573Z,10.70
2018-12-31T07:53:54.858Z,9.57
2018-12-31T07:56:22.111Z,9.80
2018-12-31T07:58:49.374Z,10.33
2018-12-31T08:01:16.698Z,10.47
2018-12-31T08:03:44.746Z,9.40
2018-12-31T08:06:12.013Z,10.13
2018-12-31T08:08:39.294Z,10.67
2018-12-31T08:11:06.578Z,10.87
2018-12-31T08:13:33.857Z,9.03
2018-12-31T08:16:01.200Z,11.83
2018-12-31T08:18:28.441Z,8.60
2018-12-31T08:20:55.798Z,8.47
2018-12-31T08:23:23.075Z,10.63
2018-12-31T08:25:50.338Z,8.93
2018-12-31T08:28:17.625Z,11.43
2018-12-31T08:30:44.865Z,9.47
2018-12-31T08:33:12.145Z,8.67
2018-12-31T08:35:39.426Z,8.80
2018-12-31T08:38:06.740Z,9.53
2018-12-31T08:40:34.032Z,10.57
2018-12-31T08:43:01.330Z,8.00
2018-12-31T08:45:28.609Z,10.00
2018-12-31T08:47:55.862Z,9.33
2018-12-31T08:50:23.120Z,8.20
2018-12-31T08:52:50.386Z,7.57
2018-12-31T08:55:17.637Z,7.50
2018-12-31T08:57:44.903Z,8.30
2018-12-31T09:00:12.173Z,7.93
2018-12-31T09:02:39.465Z,8.20
2018-12-31T09:05:06.733Z,8.00
2018-12-31T09:07:34.020Z,8.60
2018-12-31T09:10:01.288Z,7.73
2018-12-31T09:12:28.584Z,7.87
2018-12-31T09:14:55.842Z,7.33
2018-12-31T09:17:23.106Z,8.50
2018-12-31T09:19:50.439Z,7.10
2018-12-31T09:22:17.726Z,7.70
2018-12-31T09:24:45.108Z,6.90
2018-12-31T09:27:12.409Z,7.57
2018-12-31T09:29:39.697Z,7.63
2018-12-31T09:32:06.990Z,7.47
2018-12-31T09:34:34.253Z,6.43
2018-12-31T09:37:01.713Z,6.97
2018-12-31T09:39:29.030Z,8.83
2018-12-31T09:41:56.371Z,7.40
2018-12-31T09:44:23.711Z,7.27
2018-12-31T09:46:50.977Z,7.73
2018-12-31T09:49:18.339Z,7.87
2018-12-31T09:51:45.615Z,6.87
2018-12-31T09:54:14.823Z,6.50
2018-12-31T09:56:41.868Z,6.47
2018-12-31T09:59:09.206Z,6.53
2018-12-31T10:01:36.547Z,6.13
2018-12-31T10:04:03.910Z,7.73
2018-12-31T10:06:31.246Z,6.60
2018-12-31T10:08:58.530Z,6.87
2018-12-31T10:11:27.941Z,8.13
2018-12-31T10:13:55.277Z,7.30
2018-12-31T10:16:24.163Z,7.63
2018-12-31T10:18:51.458Z,7.87
2018-12-31T10:21:18.892Z,8.03
2018-12-31T10:23:46.286Z,7.77
2018-12-31T10:26:18.419Z,6.97
2018-12-31T10:28:45.682Z,6.83
2018-12-31T10:31:12.957Z,7.40
2018-12-31T10:33:40.223Z,6.97
2018-12-31T10:36:07.483Z,6.23
2018-12-31T10:38:34.811Z,7.60
2018-12-31T10:41:02.062Z,7.07
2018-12-31T10:43:29.393Z,6.13
2018-12-31T10:45:56.686Z,6.40
2018-12-31T10:48:25.510Z,5.47
2018-12-31T10:50:52.862Z,6.83
2018-12-31T10:53:20.202Z,6.70
2018-12-31T10:55:48.757Z,5.97
2018-12-31T10:58:16.021Z,6.80
2018-12-31T11:00:45.154Z,7.37
2018-12-31T11:03:12.494Z,7.57
2018-12-31T11:05:39.906Z,5.57
2018-12-31T11:08:07.167Z,6.27
2018-12-31T11:10:36.683Z,5.73
2018-12-31T11:13:03.928Z,6.67
2018-12-31T11:15:31.423Z,6.37
2018-12-31T11:17:58.737Z,6.80
2018-12-31T11:20:26.008Z,7.77
2018-12-31T11:22:53.262Z,7.77
2018-12-31T11:25:20.537Z,7.47
2018-12-31T11:27:47.872Z,7.23
2018-12-31T11:30:15.136Z,6.20
2018-12-31T11:32:42.457Z,7.47
2018-12-31T11:35:09.975Z,7.20
2018-12-31T11:37:37.229Z,5.27
2018-12-31T11:40:05.889Z,6.07
2018-12-31T11:42:33.193Z,5.33
2018-12-31T11:45:00.526Z,5.40
2018-12-31T11:47:27.770Z,5.42
2018-12-31T11:49:55.148Z,6.77
2018-12-31T11:52:25.388Z,6.10
2018-12-31T11:54:52.737Z,5.87
2018-12-31T11:57:19.991Z,7.50
2018-12-31T11:59:47.380Z,6.03
2018-12-31T12:02:14.790Z,7.90
2018-12-31T12:04:42.050Z,7.03
2018-12-31T12:07:09.339Z,8.73
2018-12-31T12:09:36.589Z,8.53
2018-12-31T12:12:03.982Z,9.40
2018-12-31T12:14:31.291Z,10.37
2018-12-31T12:17:00.392Z,12.53
2018-12-31T12:19:27.750Z,9.63
2018-12-31T12:21:55.125Z,10.17
2018-12-31T12:24:28.305Z,10.63
2018-12-31T12:26:55.110Z,10.83
2018-12-31T12:29:22.370Z,12.67
2018-12-31T12:31:49.665Z,12.20
2018-12-31T12:34:16.949Z,13.50
2018-12-31T12:36:47.091Z,13.23
2018-12-31T12:39:16.363Z,15.00
2018-12-31T12:41:50.841Z,13.40
2018-12-31T12:44:22.945Z,14.17
2018-12-31T12:46:50.247Z,14.60
2018-12-31T12:49:17.522Z,15.43
2018-12-31T12:51:47.542Z,17.47
2018-12-31T12:54:14.911Z,15.87
2018-12-31T12:56:42.246Z,16.80
2018-12-31T12:59:10.583Z,15.40
2018-12-31T13:01:37.918Z,16.60
2018-12-31T13:04:05.199Z,16.73
2018-12-31T13:06:32.475Z,17.77
2018-12-31T13:08:59.784Z,17.33
2018-12-31T13:11:27.115Z,16.80
2018-12-31T13:13:54.525Z,18.27
2018-12-31T13:16:21.815Z,18.50
2018-12-31T13:18:49.270Z,17.23
2018-12-31T13:21:16.599Z,16.97
2018-12-31T13:23:45.399Z,16.13
2018-12-31T13:26:12.751Z,17.63
2018-12-31T13:28:39.999Z,14.07
2018-12-31T13:31:07.289Z,16.50
2018-12-31T13:33:35.431Z,16.13
2018-12-31T13:36:02.727Z,19.03
2018-12-31T13:38:29.975Z,15.50
2018-12-31T13:40:57.227Z,16.17
2018-12-31T13:43:26.223Z,14.27
2018-12-31T13:45:53.528Z,14.90
2018-12-31T13:48:20.875Z,14.83
2018-12-31T13:50:48.467Z,14.50
2018-12-31T13:53:15.860Z,15.47
2018-12-31T13:55:43.183Z,15.20
2018-12-31T13:58:10.486Z,15.97
2018-12-31T14:00:38.682Z,15.37
2018-12-31T14:03:05.975Z,14.50
2018-12-31T14:05:33.282Z,15.13
2018-12-31T14:08:04.584Z,14.33
2018-12-31T14:10:31.958Z,15.23
2018-12-31T14:13:00.945Z,14.53
2018-12-31T14:15:28.214Z,13.43
2018-12-31T14:17:55.497Z,12.63
2018-12-31T14:20:22.771Z,14.00
2018-12-31T14:22:50.069Z,16.30
2018-12-31T14:25:17.328Z,13.87
2018-12-31T14:27:44.698Z,14.57
2018-12-31T14:30:11.968Z,14.73
2018-12-31T14:32:41.892Z,14.17
2018-12-31T14:35:09.158Z,15.40
2018-12-31T14:37:36.458Z,14.00
2018-12-31T14:40:08.000Z,13.63
2018-12-31T14:42:35.263Z,13.17
2018-12-31T14:45:02.549Z,14.73
2018-12-31T14:47:29.825Z,13.40
2018-12-31T14:49:57.147Z,14.60
2018-12-31T14:52:24.411Z,14.30
2018-12-31T14:54:51.681Z,14.93
2018-12-31T14:57:19.053Z,15.17
2018-12-31T14:59:46.407Z,13.20
2018-12-31T15:02:13.663Z,16.10
2018-12-31T15:04:40.936Z,15.07
2018-12-31T15:07:11.465Z,15.13
2018-12-31T15:09:38.803Z,15.67
2018-12-31T15:12:07.604Z,15.23
2018-12-31T15:14:35.871Z,16.67
2018-12-31T15:17:24.106Z,14.50
2018-12-31T15:19:52.910Z,15.10
2018-12-31T15:22:20.177Z,14.37
2018-12-31T15:24:47.452Z,15.87
2018-12-31T15:27:14.705Z,13.17
2018-12-31T15:29:41.971Z,15.03
2018-12-31T15:32:09.267Z,15.47
2018-12-31T15:34:36.569Z,15.97
2018-12-31T15:37:03.851Z,14.43
2018-12-31T15:39:31.119Z,14.00
2018-12-31T15:41:58.370Z,15.47
2018-12-31T15:44:27.455Z,14.23
2018-12-31T15:46:54.695Z,14.60
2018-12-31T15:49:21.967Z,13.20
2018-12-31T15:51:49.327Z,16.27
2018-12-31T15:54:16.598Z,15.53
2018-12-31T15:56:43.874Z,16.00
2018-12-31T15:59:12.861Z,14.40
2018-12-31T16:01:40.127Z,14.07
2018-12-31T16:04:07.378Z,14.47
2018-12-31T16:06:34.656Z,13.87
2018-12-31T16:09:01.930Z,15.90
2018-12-31T16:11:29.175Z,14.57
2018-12-31T16:13:56.430Z,13.90
2018-12-31T16:16:23.697Z,18.93
2018-12-31T16:18:50.950Z,13.87
2018-12-31T16:21:18.223Z,14.20
2018-12-31T16:23:45.466Z,14.00
2018-12-31T16:26:12.762Z,16.57
2018-12-31T16:28:40.042Z,14.33
2018-12-31T16:31:07.313Z,14.47
2018-12-31T16:33:34.670Z,15.30
2018-12-31T16:36:01.942Z,14.67
2018-12-31T16:38:29.224Z,15.23
2018-12-31T16:40:58.201Z,15.53
2018-12-31T16:43:25.474Z,15.50
2018-12-31T16:45:52.750Z,16.10
2018-12-31T16:48:20.007Z,16.63
2018-12-31T16:50:47.286Z,15.47
2018-12-31T16:53:14.580Z,14.93
2018-12-31T16:55:41.870Z,15.37
2018-12-31T16:58:09.139Z,16.03
2018-12-31T17:00:36.410Z,15.27
2018-12-31T17:03:03.693Z,15.77
2018-12-31T17:05:30.970Z,17.27
2018-12-31T17:07:58.242Z,20.23
2018-12-31T17:10:27.235Z,18.13
2018-12-31T17:12:54.502Z,18.07
2018-12-31T17:15:21.786Z,20.17
2018-12-31T17:17:49.032Z,18.13
2018-12-31T17:20:16.323Z,17.23
2018-12-31T17:22:43.595Z,19.20
2018-12-31T17:25:10.951Z,21.43
2018-12-31T17:27:38.222Z,23.93
2018-12-31T17:30:07.042Z,19.60
2018-12-31T17:32:34.318Z,18.23
2018-12-31T17:35:01.583Z,16.83
2018-12-31T17:37:32.146Z,15.20
2018-12-31T17:39:59.387Z,14.73
2018-12-31T17:42:26.678Z,15.23
2018-12-31T17:44:54.027Z,14.27
2018-12-31T17:47:21.317Z,16.53
2018-12-31T17:49:48.650Z,16.67
2018-12-31T17:52:17.659Z,16.20
2018-12-31T17:54:44.926Z,21.63
2018-12-31T17:57:13.051Z,25.87
2018-12-31T17:59:40.318Z,28.43
2018-12-31T18:02:07.567Z,24.37
2018-12-31T18:04:34.836Z,25.57
2018-12-31T18:07:03.714Z,26.23
2018-12-31T18:09:31.005Z,26.93
2018-12-31T18:11:58.255Z,28.93
2018-12-31T18:14:25.505Z,31.80
2018-12-31T18:16:52.774Z,31.77
2018-12-31T18:19:21.743Z,33.47
2018-12-31T18:21:49.028Z,31.50
2018-12-31T18:24:16.307Z,25.50
2018-12-31T18:26:43.573Z,27.37
2018-12-31T18:29:10.853Z,26.10
2018-12-31T18:31:38.130Z,24.53
2018-12-31T18:34:05.470Z,24.93
2018-12-31T18:36:32.729Z,26.80
2018-12-31T18:39:00.002Z,24.23
2018-12-31T18:41:27.314Z,18.70
2018-12-31T18:43:54.586Z,18.17
2018-12-31T18:46:21.875Z,21.40
2018-12-31T18:48:50.786Z,20.87
2018-12-31T18:51:18.053Z,24.97
2018-12-31T18:53:45.347Z,17.97
2018-12-31T18:56:12.590Z,18.03
2018-12-31T18:58:39.882Z,19.10
2018-12-31T19:01:07.135Z,12.17
2018-12-31T19:03:34.414Z,14.10
2018-12-31T19:06:01.701Z,10.70
2018-12-31T19:08:28.970Z,12.13
2018-12-31T19:10:56.230Z,10.67
2018-12-31T19:13:23.526Z,12.40
2018-12-31T19:15:50.784Z,12.87
2018-12-31T19:18:18.056Z,9.93
2018-12-31T19:20:45.316Z,9.63
2018-12-31T19:23:12.576Z,12.13
2018-12-31T19:25:39.875Z,13.83
2018-12-31T19:28:07.191Z,15.87
2018-12-31T19:30:34.486Z,13.53
2018-12-31T19:33:01.830Z,13.23
2018-12-31T19:35:29.121Z,12.90
2018-12-31T19:37:56.366Z,12.87
2018-12-31T19:40:23.642Z,14.87
2018-12-31T19:42:50.922Z,13.30
2018-12-31T19:45:19.907Z,10.70
2018-12-31T19:47:47.178Z,13.10
2018-12-31T19:50:14.451Z,12.63
2018-12-31T19:52:41.702Z,24.73
2018-12-31T19:55:09.010Z,33.50
2018-12-31T19:57:36.294Z,20.37
2018-12-31T20:00:08.488Z,16.87
2018-12-31T20:02:35.829Z,13.43
2018-12-31T20:05:03.954Z,13.20
2018-12-31T20:07:31.238Z,19.83
2018-12-31T20:09:58.501Z,20.37
2018-12-31T20:12:25.774Z,17.47
2018-12-31T20:14:53.026Z,11.00
2018-12-31T20:17:20.300Z,11.70
2018-12-31T20:19:47.631Z,12.53
2018-12-31T20:22:14.902Z,12.90
2018-12-31T20:24:42.166Z,12.63
2018-12-31T20:27:09.458Z,10.90
2018-12-31T20:29:36.714Z,13.87
2018-12-31T20:32:03.981Z,9.40
2018-12-31T20:34:31.229Z,8.43
2018-12-31T20:36:58.482Z,10.07
2018-12-31T20:39:25.750Z,24.87
2018-12-31T20:41:53.023Z,13.23
2018-12-31T20:44:22.025Z,7.53
2018-12-31T20:46:49.283Z,5.50
2018-12-31T20:49:16.569Z,5.77
2018-12-31T20:51:43.829Z,6.07
2018-12-31T20:54:11.180Z,5.63
2018-12-31T20:56:38.518Z,5.80
2018-12-31T20:59:07.544Z,5.30
2018-12-31T21:01:34.806Z,4.70
2018-12-31T21:04:02.091Z,4.43
2018-12-31T21:06:29.391Z,5.00
2018-12-31T21:08:56.634Z,4.90
2018-12-31T21:11:23.912Z,5.23
2018-12-31T21:13:52.915Z,6.70
2018-12-31T21:16:20.150Z,6.93
2018-12-31T21:18:47.421Z,8.80
2018-12-31T21:21:16.592Z,10.07
2018-12-31T21:23:43.703Z,8.43
2018-12-31T21:26:10.950Z,9.90
2018-12-31T21:28:39.935Z,9.33
2018-12-31T21:31:07.201Z,9.30
2018-12-31T21:33:34.478Z,10.30
2018-12-31T21:36:01.752Z,11.60
2018-12-31T21:38:29.063Z,11.77
2018-12-31T21:40:56.414Z,11.73
2018-12-31T21:43:24.359Z,11.77
2018-12-31T21:45:51.634Z,11.43
2018-12-31T21:48:18.883Z,11.40
2018-12-31T21:50:46.151Z,14.47
2018-12-31T21:53:13.455Z,13.40
2018-12-31T21:55:40.774Z,12.43
2018-12-31T21:58:09.765Z,12.70
2018-12-31T22:00:37.041Z,12.97
2018-12-31T22:03:04.318Z,12.90
2018-12-31T22:05:31.571Z,11.67
2018-12-31T22:07:58.838Z,13.90
2018-12-31T22:10:26.109Z,13.10
2018-12-31T22:12:53.368Z,11.60
2018-12-31T22:15:20.618Z,13.57
2018-12-31T22:17:47.910Z,13.70
2018-12-31T22:20:15.186Z,13.40
2018-12-31T22:22:42.477Z,13.03
2018-12-31T22:25:09.752Z,11.53
2018-12-31T22:27:37.068Z,11.60
2018-12-31T22:30:05.942Z,10.20
2018-12-31T22:32:33.211Z,9.47
2018-12-31T22:35:00.492Z,10.30
2018-12-31T22:37:27.739Z,10.30
2018-12-31T22:39:55.022Z,10.30
2018-12-31T22:42:24.806Z,10.77
2018-12-31T22:44:52.070Z,9.73
2018-12-31T22:47:19.365Z,10.67
2018-12-31T22:49:46.648Z,10.70
2018-12-31T22:52:14.018Z,10.20
2018-12-31T22:54:43.026Z,11.73
2018-12-31T22:57:10.311Z,10.30
2018-12-31T22:59:37.589Z,10.23
2018-12-31T23:02:06.470Z,11.43
2018-12-31T23:04:33.734Z,11.57
2018-12-31T23:07:01.085Z,18.50
2018-12-31T23:09:28.402Z,26.30
2018-12-31T23:11:57.331Z,54.43
2018-12-31T23:14:24.590Z,97.67
2018-12-31T23:16:53.403Z,95.93
2018-12-31T23:19:20.656Z,131.63
2018-12-31T23:21:48.702Z,130.73
2018-12-31T23:24:15.997Z,113.57
2018-12-31T23:26:43.363Z,77.67
2018-12-31T23:29:10.658Z,42.63
2018-12-31T23:31:37.978Z,38.67
2018-12-31T23:34:05.264Z,42.33
2018-12-31T23:36:33.411Z,39.83
2018-12-31T23:39:05.139Z,40.83
2018-12-31T23:41:29.674Z,37.57
2018-12-31T23:43:56.979Z,34.10
2018-12-31T23:46:24.242Z,28.83
2018-12-31T23:48:51.525Z,24.53
2018-12-31T23:51:19.474Z,24.47
2018-12-31T23:53:46.750Z,22.70
2018-12-31T23:56:14.057Z,16.60
2018-12-31T23:58:41.346Z,15.20
